Time;durP1;ratioP1;P1;durP2;ratioP2;P2;SDS_P1;SDS_P2;PMS_P1;PMS_P2;Temp;Humidity;BMP_temperature;BMP_pressure;BME280_temperature;BME280_humidity;BME280_pressure;Samples;Min_cycle;Max_cycle;Signal;HPM_P1;HPM_P2
2024/03/22 00:00:34;;;;;;;12.10;3.67;;;;;;;;;;2063822;28;20015;-51
2024/03/22 00:01:35;;;;;;;9.75;3.47;;;;;;;;;;2063802;28;20022;-52
2024/03/22 00:02:37;;;;;;;13.32;3.67;;;;;;;;;;2064641;28;20015;-55
2024/03/22 00:03:38;;;;;;;11.05;4.28;;;;;;;;;;2064298;28;20022;-53
2024/03/22 00:04:39;;;;;;;14.85;4.22;;;;;;;;;;2063797;28;20085;-52
2024/03/22 00:05:41;;;;;;;9.57;3.63;;;;;;;;;;2063677;28;20279;-53
2024/03/22 00:06:43;;;;;;;10.73;3.85;;;;;;;;;;2064466;28;20030;-54
2024/03/22 00:07:44;;;;;;;8.38;3.40;;;;;;;;;;2064399;28;20041;-51
2024/03/22 00:08:45;;;;;;;13.05;4.03;;;;;;;;;;2058292;28;20142;-52
2024/03/22 00:09:47;;;;;;;14.32;4.18;;;;;;;;;;2056447;28;20023;-52
2024/03/22 00:10:48;;;;;;;17.40;4.88;;;;;;;;;;2056342;28;20019;-53
2024/03/22 00:11:50;;;;;;;13.43;4.22;;;;;;;;;;2056345;28;20026;-52
2024/03/22 00:12:51;;;;;;;15.52;3.65;;;;;;;;;;2056385;28;20058;-52
2024/03/22 00:13:52;;;;;;;8.10;3.42;;;;;;;;;;2055562;28;20050;-52
2024/03/22 00:14:54;;;;;;;15.02;3.70;;;;;;;;;;2055799;28;20541;-48
2024/03/22 00:15:55;;;;;;;15.55;3.95;;;;;;;;;;2056247;28;20066;-51
2024/03/22 00:16:56;;;;;;;9.15;3.55;;;;;;;;;;2062369;28;20027;-46
2024/03/22 00:17:58;;;;;;;7.03;3.78;;;;;;;;;;2064343;28;20366;-45
2024/03/22 00:18:59;;;;;;;8.35;3.80;;;;;;;;;;2064212;28;20111;-46
2024/03/22 00:20:01;;;;;;;12.02;3.20;;;;;;;;;;2059796;28;20487;-45
2024/03/22 00:21:03;;;;;;;9.18;3.03;;;;;;;;;;2056408;28;20011;-44
2024/03/22 00:22:04;;;;;;;9.50;2.95;;;;;;;;;;2056254;28;20548;-46
2024/03/22 00:23:05;;;;;;;8.95;3.03;;;;;;;;;;2056267;28;20134;-46
2024/03/22 00:24:07;;;;;;;8.38;3.53;;;;;;;;;;2055565;28;20073;-45
2024/03/22 00:25:08;;;;;;;9.45;2.90;;;;;;;;;;2056220;28;20038;-47
2024/03/22 00:26:09;;;;;;;11.43;3.13;;;;;;;;;;2065708;28;20031;-46
2024/03/22 00:27:12;;;;;;;8.25;2.70;;;;;;;;;;2065332;28;20034;-45
2024/03/22 00:28:13;;;;;;;8.02;2.97;;;;;;;;;;2059690;28;20161;-46
2024/03/22 00:29:14;;;;;;;7.68;2.63;;;;;;;;;;2057851;28;20454;-45
2024/03/22 00:30:16;;;;;;;6.53;2.67;;;;;;;;;;2057986;28;20061;-47
2024/03/22 00:31:17;;;;;;;7.40;2.90;;;;;;;;;;2057953;28;20026;-46
2024/03/22 00:32:18;;;;;;;14.35;3.75;;;;;;;;;;2057667;28;20419;-46
2024/03/22 00:33:20;;;;;;;12.50;3.33;;;;;;;;;;2057298;28;20462;-46
2024/03/22 00:34:21;;;;;;;8.23;3.33;;;;;;;;;;2057209;28;20030;-46
2024/03/22 00:35:22;;;;;;;8.18;3.20;;;;;;;;;;2057752;28;20102;-46
2024/03/22 00:36:24;;;;;;;7.75;2.67;;;;;;;;;;2058022;28;20027;-46
2024/03/22 00:37:25;;;;;;;8.10;2.83;;;;;;;;;;2057133;28;20101;-46
2024/03/22 00:38:26;;;;;;;12.68;3.17;;;;;;;;;;2049222;28;20033;-46
2024/03/22 00:39:28;;;;;;;8.55;3.03;;;;;;;;;;2057230;28;20062;-47
2024/03/22 00:40:29;;;;;;;6.88;2.65;;;;;;;;;;2057849;28;20030;-47
2024/03/22 00:41:31;;;;;;;7.10;2.90;;;;;;;;;;2061543;28;20089;-47
2024/03/22 00:42:33;;;;;;;8.05;2.75;;;;;;;;;;2057784;28;20027;-47
2024/03/22 00:43:34;;;;;;;9.23;3.35;;;;;;;;;;2057705;28;20340;-47
2024/03/22 00:44:35;;;;;;;6.88;2.70;;;;;;;;;;2057856;28;20023;-46
2024/03/22 00:45:36;;;;;;;11.00;3.42;;;;;;;;;;2064726;28;20102;-48
2024/03/22 00:46:38;;;;;;;8.77;2.33;;;;;;;;;;2065574;28;20049;-47
2024/03/22 00:47:39;;;;;;;8.40;3.25;;;;;;;;;;2065188;28;20087;-46
2024/03/22 00:48:40;;;;;;;12.13;5.90;;;;;;;;;;2064911;28;20025;-46
2024/03/22 00:49:41;;;;;;;10.10;3.78;;;;;;;;;;2065883;28;20027;-46
2024/03/22 00:50:43;;;;;;;12.95;4.25;;;;;;;;;;2065711;28;20048;-46
2024/03/22 00:51:44;;;;;;;10.68;3.22;;;;;;;;;;2065107;28;20037;-46
2024/03/22 00:52:46;;;;;;;6.75;2.80;;;;;;;;;;2065201;28;20053;-45
2024/03/22 00:53:47;;;;;;;9.15;2.75;;;;;;;;;;2065939;28;20109;-47
2024/03/22 00:54:49;;;;;;;7.80;3.08;;;;;;;;;;2064580;28;20018;-46
2024/03/22 00:55:51;;;;;;;8.05;2.95;;;;;;;;;;2057812;28;20029;-46
2024/03/22 00:56:52;;;;;;;11.20;3.10;;;;;;;;;;2057592;28;20033;-46
2024/03/22 00:57:53;;;;;;;8.20;3.78;;;;;;;;;;2059328;28;20022;-47
2024/03/22 00:58:54;;;;;;;11.70;3.85;;;;;;;;;;2056972;28;20030;-47
2024/03/22 00:59:56;;;;;;;10.18;4.05;;;;;;;;;;2057658;28;20019;-46
2024/03/22 01:00:57;;;;;;;10.48;3.58;;;;;;;;;;2057834;28;20015;-46
2024/03/22 01:01:58;;;;;;;7.43;3.00;;;;;;;;;;2064928;28;20018;-47
2024/03/22 01:03:00;;;;;;;8.50;2.97;;;;;;;;;;2063506;28;20715;-46
2024/03/22 01:04:01;;;;;;;6.97;2.72;;;;;;;;;;2065510;28;20376;-46
2024/03/22 01:05:02;;;;;;;6.32;2.50;;;;;;;;;;2065471;28;20049;-47
2024/03/22 01:06:04;;;;;;;9.27;3.03;;;;;;;;;;2064629;28;20398;-47
2024/03/22 01:07:05;;;;;;;11.82;3.58;;;;;;;;;;2065198;28;20057;-47
2024/03/22 01:08:07;;;;;;;7.50;2.72;;;;;;;;;;2064746;28;20050;-46
2024/03/22 01:09:08;;;;;;;6.00;2.92;;;;;;;;;;2065337;28;20014;-47
2024/03/22 01:10:10;;;;;;;12.65;3.08;;;;;;;;;;2065400;28;20469;-46
2024/03/22 01:11:12;;;;;;;8.93;2.40;;;;;;;;;;2060454;28;20105;-46
2024/03/22 01:12:13;;;;;;;6.35;2.40;;;;;;;;;;2057461;28;20113;-46
2024/03/22 01:13:14;;;;;;;10.48;2.58;;;;;;;;;;2057388;28;20058;-45
2024/03/22 01:14:16;;;;;;;7.03;2.88;;;;;;;;;;2057544;28;20035;-47
2024/03/22 01:15:17;;;;;;;8.48;3.60;;;;;;;;;;2057317;28;20123;-47
2024/03/22 01:16:18;;;;;;;9.02;3.10;;;;;;;;;;2058310;28;20085;-47
2024/03/22 01:17:20;;;;;;;10.18;2.63;;;;;;;;;;2064658;28;20038;-47
2024/03/22 01:18:21;;;;;;;11.63;3.35;;;;;;;;;;2064704;28;20034;-47
2024/03/22 01:19:22;;;;;;;7.20;2.78;;;;;;;;;;2064850;28;20018;-46
2024/03/22 01:20:24;;;;;;;12.30;2.90;;;;;;;;;;2065442;28;20017;-46
2024/03/22 01:21:25;;;;;;;6.68;2.50;;;;;;;;;;2065330;28;20097;-47
2024/03/22 01:22:27;;;;;;;4.78;2.50;;;;;;;;;;2065541;28;20464;-47
2024/03/22 01:23:28;;;;;;;7.20;2.65;;;;;;;;;;2065024;28;20015;-46
2024/03/22 01:24:29;;;;;;;8.88;2.72;;;;;;;;;;2065522;28;20030;-52
2024/03/22 01:25:31;;;;;;;11.50;3.10;;;;;;;;;;2063346;28;20489;-47
2024/03/22 01:26:32;;;;;;;8.23;3.10;;;;;;;;;;2062425;28;20109;-47
2024/03/22 01:27:34;;;;;;;8.68;3.30;;;;;;;;;;2057638;28;20093;-46
2024/03/22 01:28:35;;;;;;;17.88;3.15;;;;;;;;;;2056929;28;20023;-46
2024/03/22 01:29:37;;;;;;;6.38;2.60;;;;;;;;;;2056635;28;20030;-51
2024/03/22 01:30:38;;;;;;;10.98;3.45;;;;;;;;;;2057403;28;20098;-51
2024/03/22 01:31:40;;;;;;;10.93;3.00;;;;;;;;;;2060700;28;20015;-52
2024/03/22 01:32:41;;;;;;;9.93;2.90;;;;;;;;;;2057734;28;20118;-52
2024/03/22 01:33:42;;;;;;;8.27;3.15;;;;;;;;;;2065289;28;20021;-53
2024/03/22 01:34:43;;;;;;;10.93;3.10;;;;;;;;;;2065329;28;20053;-52
2024/03/22 01:35:45;;;;;;;10.05;3.47;;;;;;;;;;2065454;28;20042;-52
2024/03/22 01:36:46;;;;;;;8.77;2.97;;;;;;;;;;2065193;28;20350;-49
2024/03/22 01:37:47;;;;;;;6.05;2.90;;;;;;;;;;2057308;28;20102;-52
2024/03/22 01:38:49;;;;;;;10.75;2.95;;;;;;;;;;2058388;28;20130;-51
2024/03/22 01:39:50;;;;;;;8.63;3.05;;;;;;;;;;2064571;28;20081;-49
2024/03/22 01:40:51;;;;;;;4.60;3.33;;;;;;;;;;2057418;28;20035;-53
2024/03/22 01:41:53;;;;;;;6.72;3.00;;;;;;;;;;2057446;28;20019;-52
2024/03/22 01:42:56;;;;;;;9.27;2.75;;;;;;;;;;2061673;28;20369;-52
2024/03/22 01:43:58;;;;;;;7.75;3.08;;;;;;;;;;2065207;28;20098;-54
2024/03/22 01:44:59;;;;;;;16.15;3.80;;;;;;;;;;2065170;28;20018;-52
2024/03/22 01:46:01;;;;;;;6.78;2.92;;;;;;;;;;2065344;28;20030;-50
2024/03/22 01:47:02;;;;;;;4.57;2.47;;;;;;;;;;2064844;28;20429;-52
2024/03/22 01:48:04;;;;;;;10.65;3.42;;;;;;;;;;2064490;28;20513;-47
2024/03/22 01:49:05;;;;;;;10.45;3.45;;;;;;;;;;2064795;28;20077;-46
2024/03/22 01:50:07;;;;;;;8.13;3.17;;;;;;;;;;2065328;28;20035;-47
2024/03/22 01:51:09;;;;;;;8.45;3.40;;;;;;;;;;2065411;28;20397;-48
2024/03/22 01:52:10;;;;;;;8.55;3.35;;;;;;;;;;2065350;28;20026;-48
2024/03/22 01:53:12;;;;;;;5.78;3.00;;;;;;;;;;2065287;28;20393;-46
2024/03/22 01:54:14;;;;;;;11.73;3.03;;;;;;;;;;2065251;28;20445;-47
2024/03/22 01:55:15;;;;;;;8.23;3.33;;;;;;;;;;2065366;28;20429;-48
2024/03/22 01:56:17;;;;;;;7.38;2.88;;;;;;;;;;2065320;28;20393;-46
2024/03/22 01:57:18;;;;;;;6.53;2.83;;;;;;;;;;2065118;28;20101;-48
2024/03/22 01:58:19;;;;;;;10.00;2.90;;;;;;;;;;2065013;28;20117;-47
2024/03/22 01:59:21;;;;;;;7.00;3.13;;;;;;;;;;2065152;28;20487;-47
2024/03/22 02:00:24;;;;;;;12.07;3.40;;;;;;;;;;2065131;28;20047;-47
2024/03/22 02:01:26;;;;;;;6.50;3.28;;;;;;;;;;2065396;28;20046;-47
2024/03/22 02:02:27;;;;;;;10.20;3.00;;;;;;;;;;2064474;28;20061;-46
2024/03/22 02:03:28;;;;;;;10.25;3.22;;;;;;;;;;2064524;28;20029;-47
2024/03/22 02:04:29;;;;;;;10.00;2.72;;;;;;;;;;2064982;28;20030;-48
2024/03/22 02:05:31;;;;;;;10.85;3.60;;;;;;;;;;2064886;28;20511;-46
2024/03/22 02:06:32;;;;;;;8.73;3.03;;;;;;;;;;2063649;28;20030;-47
2024/03/22 02:07:33;;;;;;;5.78;3.10;;;;;;;;;;2063571;28;20018;-47
2024/03/22 02:08:35;;;;;;;6.22;3.25;;;;;;;;;;2064136;28;20080;-46
2024/03/22 02:09:37;;;;;;;11.65;3.53;;;;;;;;;;2064412;28;20475;-47
2024/03/22 02:10:38;;;;;;;11.73;3.38;;;;;;;;;;2064278;28;20141;-46
2024/03/22 02:11:40;;;;;;;6.10;2.92;;;;;;;;;;2064911;28;20030;-46
2024/03/22 02:12:41;;;;;;;8.50;2.92;;;;;;;;;;2065036;28;20117;-47
2024/03/22 02:13:43;;;;;;;9.30;3.78;;;;;;;;;;2064961;28;20382;-46
2024/03/22 02:14:44;;;;;;;12.38;4.22;;;;;;;;;;2064917;28;20034;-46
2024/03/22 02:15:45;;;;;;;6.03;2.88;;;;;;;;;;2058200;28;20029;-46
2024/03/22 02:16:47;;;;;;;9.15;3.15;;;;;;;;;;2061086;28;20045;-47
2024/03/22 02:17:48;;;;;;;7.68;3.30;;;;;;;;;;2064372;28;20111;-47
2024/03/22 02:18:50;;;;;;;8.68;3.63;;;;;;;;;;2064817;28;20034;-46
2024/03/22 02:19:51;;;;;;;9.20;3.15;;;;;;;;;;2064994;28;20026;-46
2024/03/22 02:20:53;;;;;;;12.30;3.50;;;;;;;;;;2064983;28;20073;-47
2024/03/22 02:21:54;;;;;;;6.05;3.00;;;;;;;;;;2064901;28;20026;-46
2024/03/22 02:22:55;;;;;;;8.65;3.00;;;;;;;;;;2064153;28;20027;-47
2024/03/22 02:23:57;;;;;;;7.28;2.95;;;;;;;;;;2064773;28;20022;-46
2024/03/22 02:24:58;;;;;;;8.48;2.67;;;;;;;;;;2064913;28;20023;-47
2024/03/22 02:25:59;;;;;;;10.52;3.25;;;;;;;;;;2057530;28;20015;-46
2024/03/22 02:27:00;;;;;;;7.30;2.67;;;;;;;;;;2056841;28;20093;-47
2024/03/22 02:28:02;;;;;;;7.85;3.10;;;;;;;;;;2056700;28;20015;-46
2024/03/22 02:29:03;;;;;;;9.95;3.50;;;;;;;;;;2056793;28;20140;-48
2024/03/22 02:30:05;;;;;;;10.43;3.10;;;;;;;;;;2056412;28;20027;-47
2024/03/22 02:31:06;;;;;;;14.52;3.15;;;;;;;;;;2064126;28;20484;-46
2024/03/22 02:32:07;;;;;;;9.63;2.75;;;;;;;;;;2062360;28;20018;-47
2024/03/22 02:33:09;;;;;;;8.73;3.17;;;;;;;;;;2060659;28;20023;-49
2024/03/22 02:34:10;;;;;;;5.47;2.97;;;;;;;;;;2056896;28;20019;-47
2024/03/22 02:35:11;;;;;;;7.13;2.88;;;;;;;;;;2056959;28;20027;-48
2024/03/22 02:36:13;;;;;;;8.20;2.92;;;;;;;;;;2056799;28;20027;-46
2024/03/22 02:37:14;;;;;;;10.93;3.03;;;;;;;;;;2056240;28;20137;-46
2024/03/22 02:38:16;;;;;;;12.88;3.25;;;;;;;;;;2056857;28;20397;-47
2024/03/22 02:39:21;;;;;;;10.15;3.05;;;;;;;;;;2063740;28;20811;-46
2024/03/22 02:40:22;;;;;;;10.35;3.15;;;;;;;;;;2056227;28;20085;-46
2024/03/22 02:41:23;;;;;;;9.38;2.90;;;;;;;;;;2056247;28;20046;-46
2024/03/22 02:42:24;;;;;;;8.00;2.97;;;;;;;;;;2056176;28;20031;-46
2024/03/22 02:43:26;;;;;;;12.10;3.00;;;;;;;;;;2059276;28;20030;-46
2024/03/22 02:44:27;;;;;;;6.20;2.70;;;;;;;;;;2060956;28;20015;-46
2024/03/22 02:45:28;;;;;;;6.28;2.85;;;;;;;;;;2062841;28;20014;-46
2024/03/22 02:46:29;;;;;;;10.40;2.80;;;;;;;;;;2056875;28;20035;-46
2024/03/22 02:47:31;;;;;;;8.35;3.15;;;;;;;;;;2056528;28;20744;-45
2024/03/22 02:48:33;;;;;;;8.38;3.05;;;;;;;;;;2056508;28;20529;-47
2024/03/22 02:49:34;;;;;;;8.35;3.10;;;;;;;;;;2056856;28;20042;-46
2024/03/22 02:50:35;;;;;;;9.15;3.03;;;;;;;;;;2056753;28;20036;-46
2024/03/22 02:51:37;;;;;;;8.20;3.00;;;;;;;;;;2056866;28;20014;-46
2024/03/22 02:52:38;;;;;;;9.50;2.67;;;;;;;;;;2056798;28;20027;-46
2024/03/22 02:53:39;;;;;;;8.57;3.20;;;;;;;;;;2056437;28;20023;-52
2024/03/22 02:54:41;;;;;;;7.70;2.60;;;;;;;;;;2056074;28;20106;-52
2024/03/22 02:55:42;;;;;;;7.32;3.25;;;;;;;;;;2057886;28;20034;-49
2024/03/22 02:56:44;;;;;;;6.05;2.85;;;;;;;;;;2057840;28;20039;-52
2024/03/22 02:57:45;;;;;;;7.35;2.90;;;;;;;;;;2056836;28;20025;-50
2024/03/22 02:58:47;;;;;;;8.98;3.03;;;;;;;;;;2059044;28;20018;-51
2024/03/22 02:59:48;;;;;;;10.32;3.35;;;;;;;;;;2056656;28;20027;-52
2024/03/22 03:00:49;;;;;;;10.55;3.25;;;;;;;;;;2061645;28;20025;-54
2024/03/22 03:01:50;;;;;;;8.00;2.90;;;;;;;;;;2064576;28;20018;-54
2024/03/22 03:02:52;;;;;;;7.18;2.85;;;;;;;;;;2064711;28;20019;-51
2024/03/22 03:03:54;;;;;;;6.30;2.75;;;;;;;;;;2064309;28;20022;-52
2024/03/22 03:04:55;;;;;;;11.98;3.13;;;;;;;;;;2064025;28;20022;-52
2024/03/22 03:05:56;;;;;;;10.57;2.95;;;;;;;;;;2062563;28;20010;-51
2024/03/22 03:06:58;;;;;;;10.77;3.35;;;;;;;;;;2064387;28;20022;-52
2024/03/22 03:07:59;;;;;;;9.00;3.50;;;;;;;;;;2064673;28;20017;-52
2024/03/22 03:09:00;;;;;;;8.50;2.67;;;;;;;;;;2064611;28;20080;-52
2024/03/22 03:10:02;;;;;;;6.60;2.97;;;;;;;;;;2064728;28;20021;-53
2024/03/22 03:11:04;;;;;;;8.85;3.20;;;;;;;;;;2064541;28;20026;-53
2024/03/22 03:12:06;;;;;;;10.73;3.38;;;;;;;;;;2064062;28;20089;-51
2024/03/22 03:13:08;;;;;;;8.68;2.97;;;;;;;;;;2064072;28;20608;-51
2024/03/22 03:14:09;;;;;;;7.22;2.95;;;;;;;;;;2064678;28;20692;-51
2024/03/22 03:15:11;;;;;;;6.25;3.10;;;;;;;;;;2064621;28;20033;-53
2024/03/22 03:16:12;;;;;;;13.02;3.58;;;;;;;;;;2062289;28;20077;-52
2024/03/22 03:17:13;;;;;;;9.35;3.22;;;;;;;;;;2064071;28;20042;-51
2024/03/22 03:18:14;;;;;;;8.15;3.10;;;;;;;;;;2064590;28;20106;-53
2024/03/22 03:19:16;;;;;;;10.02;2.92;;;;;;;;;;2064538;28;20421;-51
2024/03/22 03:20:17;;;;;;;10.05;3.13;;;;;;;;;;2064542;28;20020;-52
2024/03/22 03:21:18;;;;;;;10.35;3.10;;;;;;;;;;2064349;28;20481;-52
2024/03/22 03:22:20;;;;;;;14.70;3.00;;;;;;;;;;2063414;28;20019;-52
2024/03/22 03:23:21;;;;;;;8.23;2.97;;;;;;;;;;2059862;28;20462;-51
2024/03/22 03:24:22;;;;;;;15.25;3.47;;;;;;;;;;2056600;28;20022;-53
2024/03/22 03:25:24;;;;;;;11.70;3.20;;;;;;;;;;2056515;28;20086;-52
2024/03/22 03:26:25;;;;;;;7.78;2.85;;;;;;;;;;2056337;28;20052;-53
2024/03/22 03:27:27;;;;;;;7.03;2.83;;;;;;;;;;2056578;28;20068;-52
2024/03/22 03:28:28;;;;;;;6.80;3.38;;;;;;;;;;2056510;28;20051;-51
2024/03/22 03:29:29;;;;;;;7.15;3.28;;;;;;;;;;2056501;28;20019;-51
2024/03/22 03:30:31;;;;;;;7.38;3.00;;;;;;;;;;2055864;28;20031;-52
2024/03/22 03:31:32;;;;;;;9.45;3.15;;;;;;;;;;2055900;28;20015;-51
2024/03/22 03:32:33;;;;;;;9.00;2.97;;;;;;;;;;2056396;28;20030;-49
2024/03/22 03:33:35;;;;;;;8.68;2.88;;;;;;;;;;2056483;28;20490;-51
2024/03/22 03:34:36;;;;;;;9.52;2.90;;;;;;;;;;2059526;28;20034;-52
2024/03/22 03:35:37;;;;;;;8.57;3.33;;;;;;;;;;2057875;28;20525;-52
2024/03/22 03:36:39;;;;;;;8.80;3.35;;;;;;;;;;2055872;28;20047;-52
2024/03/22 03:37:40;;;;;;;8.15;3.00;;;;;;;;;;2055838;28;20015;-52
2024/03/22 03:38:41;;;;;;;7.05;2.47;;;;;;;;;;2055813;28;20377;-52
2024/03/22 03:39:43;;;;;;;9.70;3.25;;;;;;;;;;2062411;28;20505;-53
2024/03/22 03:40:44;;;;;;;7.65;2.92;;;;;;;;;;2063720;28;20093;-50
2024/03/22 03:41:45;;;;;;;7.68;3.33;;;;;;;;;;2060484;28;20118;-45
2024/03/22 03:42:47;;;;;;;7.60;2.65;;;;;;;;;;2056502;28;20019;-45
2024/03/22 03:43:48;;;;;;;7.50;3.40;;;;;;;;;;2064518;28;20015;-46
2024/03/22 03:44:49;;;;;;;7.35;2.83;;;;;;;;;;2064584;28;20101;-45
2024/03/22 03:45:50;;;;;;;8.75;3.28;;;;;;;;;;2064321;28;20018;-46
2024/03/22 03:46:52;;;;;;;10.15;2.67;;;;;;;;;;2062549;28;20049;-45
2024/03/22 03:47:53;;;;;;;6.60;2.85;;;;;;;;;;2056375;28;20023;-45
2024/03/22 03:48:54;;;;;;;8.90;2.75;;;;;;;;;;2056541;28;20026;-47
2024/03/22 03:49:56;;;;;;;9.68;3.17;;;;;;;;;;2056530;28;20027;-45
2024/03/22 03:50:59;;;;;;;6.15;2.50;;;;;;;;;;2056587;28;20011;-45
2024/03/22 03:52:00;;;;;;;9.15;3.05;;;;;;;;;;2055832;28;20106;-46
2024/03/22 03:53:01;;;;;;;8.30;2.88;;;;;;;;;;2047952;28;20063;-45
2024/03/22 03:54:03;;;;;;;6.65;3.30;;;;;;;;;;2056063;28;20023;-45
2024/03/22 03:55:04;;;;;;;11.23;3.00;;;;;;;;;;2056549;28;20029;-45
2024/03/22 03:56:05;;;;;;;8.23;2.97;;;;;;;;;;2056563;28;20046;-45
2024/03/22 03:57:07;;;;;;;9.32;2.63;;;;;;;;;;2061240;28;20401;-45
2024/03/22 03:58:09;;;;;;;6.05;2.40;;;;;;;;;;2056397;28;20025;-45
2024/03/22 03:59:10;;;;;;;8.45;3.03;;;;;;;;;;2056236;28;20038;-47
2024/03/22 04:00:11;;;;;;;8.73;2.90;;;;;;;;;;2057423;28;20458;-48
2024/03/22 04:01:13;;;;;;;7.00;3.05;;;;;;;;;;2058054;28;20069;-45
2024/03/22 04:02:14;;;;;;;8.18;2.83;;;;;;;;;;2057852;28;20029;-46
2024/03/22 04:03:16;;;;;;;8.60;2.30;;;;;;;;;;2058094;28;20034;-45
2024/03/22 04:04:17;;;;;;;7.85;2.88;;;;;;;;;;2057744;28;20073;-46
2024/03/22 04:05:19;;;;;;;11.02;3.28;;;;;;;;;;2059478;28;20031;-46
2024/03/22 04:06:20;;;;;;;8.25;3.00;;;;;;;;;;2065761;28;20094;-46
2024/03/22 04:07:22;;;;;;;9.65;3.10;;;;;;;;;;2065882;28;20023;-46
2024/03/22 04:08:23;;;;;;;5.97;2.58;;;;;;;;;;2065933;28;20018;-45
2024/03/22 04:09:24;;;;;;;7.93;2.65;;;;;;;;;;2065920;28;20072;-46
2024/03/22 04:10:26;;;;;;;6.80;2.90;;;;;;;;;;2065877;28;20033;-45
2024/03/22 04:11:27;;;;;;;8.90;2.97;;;;;;;;;;2065844;28;20030;-46
2024/03/22 04:12:29;;;;;;;10.02;3.58;;;;;;;;;;2065298;28;20025;-47
2024/03/22 04:13:30;;;;;;;8.65;3.05;;;;;;;;;;2065340;28;20108;-45
2024/03/22 04:14:31;;;;;;;9.60;3.65;;;;;;;;;;2065904;28;20027;-46
2024/03/22 04:15:36;;;;;;;8.80;3.22;;;;;;;;;;2061970;28;20014;-45
2024/03/22 04:16:37;;;;;;;10.00;2.72;;;;;;;;;;2061091;28;20022;-45
2024/03/22 04:17:38;;;;;;;10.05;3.00;;;;;;;;;;2065890;28;20106;-45
2024/03/22 04:18:40;;;;;;;8.00;2.92;;;;;;;;;;2065758;28;20031;-46
2024/03/22 04:19:41;;;;;;;8.48;2.90;;;;;;;;;;2065090;28;20109;-47
2024/03/22 04:20:43;;;;;;;11.38;3.40;;;;;;;;;;2065237;28;20011;-46
2024/03/22 04:21:45;;;;;;;5.63;2.92;;;;;;;;;;2065772;28;20026;-53
2024/03/22 04:22:48;;;;;;;7.40;2.63;;;;;;;;;;2064189;28;20065;-52
2024/03/22 04:23:50;;;;;;;7.18;3.35;;;;;;;;;;2065321;28;20053;-45
2024/03/22 04:24:51;;;;;;;5.78;2.85;;;;;;;;;;2061720;28;20335;-46
2024/03/22 04:25:56;;;;;;;8.27;2.90;;;;;;;;;;2063289;28;20030;-46
2024/03/22 04:26:57;;;;;;;8.98;2.90;;;;;;;;;;2057059;28;20030;-45
2024/03/22 04:27:58;;;;;;;9.07;3.75;;;;;;;;;;2053982;28;20062;-45
2024/03/22 04:29:00;;;;;;;10.15;3.08;;;;;;;;;;2060719;28;20466;-46
2024/03/22 04:30:01;;;;;;;8.90;3.35;;;;;;;;;;2065877;28;20018;-45
2024/03/22 04:31:03;;;;;;;9.10;3.05;;;;;;;;;;2057312;28;20039;-46
2024/03/22 04:32:04;;;;;;;10.38;3.55;;;;;;;;;;2057126;28;20087;-45
2024/03/22 04:33:06;;;;;;;9.77;3.17;;;;;;;;;;2057907;28;20050;-52
2024/03/22 04:34:08;;;;;;;9.88;3.20;;;;;;;;;;2057326;28;20030;-51
2024/03/22 04:35:09;;;;;;;7.88;3.10;;;;;;;;;;2057078;28;20023;-51
2024/03/22 04:36:10;;;;;;;7.93;3.05;;;;;;;;;;2065659;28;20032;-53
2024/03/22 04:37:12;;;;;;;10.25;2.72;;;;;;;;;;2065767;28;20046;-49
2024/03/22 04:38:13;;;;;;;8.88;3.28;;;;;;;;;;2065173;28;20027;-52
2024/03/22 04:39:16;;;;;;;8.70;3.03;;;;;;;;;;2065066;28;20054;-51
2024/03/22 04:40:18;;;;;;;5.88;2.22;;;;;;;;;;2065770;28;20037;-52
2024/03/22 04:41:19;;;;;;;10.20;2.83;;;;;;;;;;2065729;28;20026;-46
2024/03/22 04:42:20;;;;;;;8.30;2.72;;;;;;;;;;2065875;28;20022;-46
2024/03/22 04:43:21;;;;;;;7.72;3.30;;;;;;;;;;2065102;28;20049;-46
2024/03/22 04:44:23;;;;;;;7.70;3.47;;;;;;;;;;2057056;28;20038;-47
2024/03/22 04:45:24;;;;;;;6.82;3.05;;;;;;;;;;2054296;28;20031;-47
2024/03/22 04:46:25;;;;;;;11.25;3.00;;;;;;;;;;2057721;28;20023;-47
2024/03/22 04:47:27;;;;;;;10.32;2.80;;;;;;;;;;2062799;28;20022;-46
2024/03/22 04:48:28;;;;;;;7.80;2.70;;;;;;;;;;2065889;28;20022;-47
2024/03/22 04:49:31;;;;;;;6.22;2.70;;;;;;;;;;2065766;28;20042;-46
2024/03/22 04:50:32;;;;;;;7.80;2.92;;;;;;;;;;2063991;28;20057;-47
2024/03/22 04:51:33;;;;;;;8.05;3.38;;;;;;;;;;2065828;28;20109;-46
2024/03/22 04:52:35;;;;;;;8.68;2.40;;;;;;;;;;2062521;28;20027;-46
2024/03/22 04:53:36;;;;;;;10.73;3.40;;;;;;;;;;2057116;28;20026;-46
2024/03/22 04:54:37;;;;;;;6.15;2.80;;;;;;;;;;2057647;28;20035;-47
2024/03/22 04:55:44;;;;;;;10.18;3.33;;;;;;;;;;2058108;28;20394;-47
2024/03/22 04:56:45;;;;;;;9.82;3.08;;;;;;;;;;2057803;28;20011;-46
2024/03/22 04:57:47;;;;;;;9.20;2.78;;;;;;;;;;2057604;28;20505;-46
2024/03/22 04:58:48;;;;;;;7.88;2.80;;;;;;;;;;2057351;28;20030;-47
2024/03/22 04:59:49;;;;;;;6.10;3.15;;;;;;;;;;2057692;28;20030;-47
2024/03/22 05:00:57;;;;;;;7.68;2.75;;;;;;;;;;2063551;28;20101;-48
2024/03/22 05:01:58;;;;;;;9.23;3.25;;;;;;;;;;2065449;28;20014;-53
2024/03/22 05:02:59;;;;;;;11.07;3.67;;;;;;;;;;2065706;28;20007;-53
2024/03/22 05:04:00;;;;;;;8.85;2.38;;;;;;;;;;2065677;28;20027;-53
2024/03/22 05:05:02;;;;;;;9.45;3.35;;;;;;;;;;2064374;28;20033;-49
2024/03/22 05:06:03;;;;;;;8.90;2.92;;;;;;;;;;2065149;28;20106;-52
2024/03/22 05:07:04;;;;;;;9.50;2.72;;;;;;;;;;2064735;28;20023;-53
2024/03/22 05:08:07;;;;;;;6.75;3.13;;;;;;;;;;2064807;28;20037;-49
2024/03/22 05:09:10;;;;;;;9.25;3.13;;;;;;;;;;2058425;28;20015;-52
2024/03/22 05:10:11;;;;;;;7.10;2.67;;;;;;;;;;2058381;28;20026;-45
2024/03/22 05:11:12;;;;;;;7.28;2.92;;;;;;;;;;2056091;28;20018;-44
2024/03/22 05:12:14;;;;;;;5.78;2.90;;;;;;;;;;2056777;28;20835;-45
2024/03/22 05:13:16;;;;;;;8.65;2.40;;;;;;;;;;2052652;28;20031;-47
2024/03/22 05:14:20;;;;;;;6.55;3.17;;;;;;;;;;2056793;28;20031;-45
2024/03/22 05:15:21;;;;;;;9.10;3.13;;;;;;;;;;2064233;28;20047;-45
2024/03/22 05:16:23;;;;;;;8.13;2.97;;;;;;;;;;2063053;28;20384;-44
2024/03/22 05:17:25;;;;;;;9.15;2.75;;;;;;;;;;2064880;28;20022;-45
2024/03/22 05:18:26;;;;;;;8.07;3.10;;;;;;;;;;2064714;28;20385;-45
2024/03/22 05:19:27;;;;;;;10.10;3.05;;;;;;;;;;2065348;28;20029;-45
2024/03/22 05:20:29;;;;;;;9.38;3.45;;;;;;;;;;2064677;28;20015;-45
2024/03/22 05:21:30;;;;;;;9.07;3.10;;;;;;;;;;2064926;28;20097;-46
2024/03/22 05:22:32;;;;;;;5.68;3.10;;;;;;;;;;2065362;28;20056;-44
2024/03/22 05:23:33;;;;;;;7.95;2.97;;;;;;;;;;2065434;28;20425;-44
2024/03/22 05:24:34;;;;;;;13.55;3.58;;;;;;;;;;2056945;28;20525;-45
2024/03/22 05:25:35;;;;;;;8.05;3.17;;;;;;;;;;2048617;28;20031;-45
2024/03/22 05:26:37;;;;;;;6.38;2.83;;;;;;;;;;2056511;28;20046;-45
2024/03/22 05:27:38;;;;;;;9.38;3.53;;;;;;;;;;2059069;28;20305;-45
2024/03/22 05:28:39;;;;;;;9.20;3.33;;;;;;;;;;2058866;28;20126;-44
2024/03/22 05:29:41;;;;;;;10.20;3.08;;;;;;;;;;2057378;28;20027;-45
2024/03/22 05:30:42;;;;;;;8.13;2.85;;;;;;;;;;2062778;28;20470;-46
2024/03/22 05:31:51;;;;;;;6.32;2.80;;;;;;;;;;2063504;28;20542;-46
2024/03/22 05:32:53;;;;;;;10.13;3.08;;;;;;;;;;2065348;28;20323;-44
2024/03/22 05:33:54;;;;;;;7.68;3.33;;;;;;;;;;2065557;28;20042;-44
2024/03/22 05:34:56;;;;;;;9.13;2.85;;;;;;;;;;2065253;28;20011;-49
2024/03/22 05:35:57;;;;;;;10.38;3.55;;;;;;;;;;2064837;28;20030;-50
2024/03/22 05:36:59;;;;;;;11.05;3.55;;;;;;;;;;2064582;28;20014;-51
2024/03/22 05:38:00;;;;;;;13.02;3.63;;;;;;;;;;2064876;28;20069;-50
2024/03/22 05:39:02;;;;;;;10.02;3.20;;;;;;;;;;2064370;28;20031;-51
2024/03/22 05:40:04;;;;;;;7.22;2.55;;;;;;;;;;2056834;28;20031;-50
2024/03/22 05:41:06;;;;;;;10.15;3.60;;;;;;;;;;2064512;28;20026;-52
2024/03/22 05:42:07;;;;;;;9.82;3.13;;;;;;;;;;2061318;28;20022;-51
2024/03/22 05:43:08;;;;;;;9.63;2.97;;;;;;;;;;2064713;28;20011;-52
2024/03/22 05:44:10;;;;;;;13.70;3.33;;;;;;;;;;2065351;28;20017;-52
2024/03/22 05:45:11;;;;;;;7.80;3.30;;;;;;;;;;2065503;28;20053;-50
2024/03/22 05:46:12;;;;;;;6.70;2.53;;;;;;;;;;2065329;28;20023;-52
2024/03/22 05:47:14;;;;;;;7.82;3.30;;;;;;;;;;2065286;28;20102;-52
2024/03/22 05:48:15;;;;;;;8.30;2.97;;;;;;;;;;2065422;28;20466;-51
2024/03/22 05:49:17;;;;;;;8.68;2.58;;;;;;;;;;2065299;28;20029;-51
2024/03/22 05:50:20;;;;;;;9.10;3.20;;;;;;;;;;2065042;28;20113;-50
2024/03/22 05:51:21;;;;;;;8.20;3.28;;;;;;;;;;2065316;28;20022;-51
2024/03/22 05:52:23;;;;;;;9.32;3.42;;;;;;;;;;2065470;28;20041;-52
2024/03/22 05:53:24;;;;;;;8.90;3.25;;;;;;;;;;2065285;28;20088;-52
2024/03/22 05:54:26;;;;;;;9.52;2.72;;;;;;;;;;2065244;28;20046;-53
2024/03/22 05:55:31;;;;;;;6.70;2.92;;;;;;;;;;2065224;28;20030;-48
2024/03/22 05:56:32;;;;;;;8.73;3.35;;;;;;;;;;2065161;28;20023;-51
2024/03/22 05:57:33;;;;;;;10.75;3.17;;;;;;;;;;2065339;28;20053;-51
2024/03/22 05:58:36;;;;;;;11.10;3.38;;;;;;;;;;2065269;28;20034;-52
2024/03/22 05:59:37;;;;;;;9.10;3.22;;;;;;;;;;2065219;28;20019;-53
2024/03/22 06:00:39;;;;;;;6.60;3.05;;;;;;;;;;2065099;28;20033;-51
2024/03/22 06:01:40;;;;;;;9.95;3.28;;;;;;;;;;2065327;28;20073;-52
2024/03/22 06:02:41;;;;;;;7.80;3.10;;;;;;;;;;2065043;28;20027;-53
2024/03/22 06:03:43;;;;;;;10.52;3.15;;;;;;;;;;2065249;28;20138;-52
2024/03/22 06:04:45;;;;;;;9.90;3.38;;;;;;;;;;2064534;28;20021;-51
2024/03/22 06:05:46;;;;;;;8.88;3.47;;;;;;;;;;2064593;28;20085;-51
2024/03/22 06:06:47;;;;;;;11.15;3.63;;;;;;;;;;2065304;28;20076;-51